Time;durP1;ratioP1;P1;durP2;ratioP2;P2;SDS_P1;SDS_P2;PMS_P1;PMS_P2;Temp;Humidity;BMP_temperature;BMP_pressure;BME280_temperature;BME280_humidity;BME280_pressure;Samples;Min_cycle;Max_cycle;Signal;HPM_P1;HPM_P2
2021/10/08 00:02:12;;;;;;;353.98;328.52;;;10.90;99.90;;;;;;5085258;28;20575;-76
2021/10/08 00:04:39;;;;;;;354.92;330.20;;;11.00;99.90;;;;;;5078341;28;20944;-76
2021/10/08 00:07:07;;;;;;;311.15;288.20;;;10.90;99.90;;;;;;5079163;28;20228;-76
2021/10/08 00:09:36;;;;;;;337.20;311.77;;;10.90;99.90;;;;;;5080365;28;20197;-76
2021/10/08 00:12:03;;;;;;;332.30;308.67;;;10.90;99.90;;;;;;5084469;28;20346;-76
2021/10/08 00:14:31;;;;;;;314.50;292.15;;;10.80;99.90;;;;;;5071882;28;20205;-76
2021/10/08 00:16:58;;;;;;;305.27;283.23;;;10.80;99.90;;;;;;5079927;28;20201;-76
2021/10/08 00:19:26;;;;;;;351.48;326.67;;;10.80;99.90;;;;;;5069520;28;20202;-77
2021/10/08 00:21:53;;;;;;;333.88;310.58;;;10.70;99.90;;;;;;5083183;28;20197;-77
2021/10/08 00:24:20;;;;;;;80.72;75.53;;;10.70;99.90;;;;;;5079374;28;20258;-77
2021/10/08 00:26:48;;;;;;;34.22;31.08;;;10.60;99.90;;;;;;5073415;28;20208;-76
2021/10/08 00:29:16;;;;;;;342.85;317.75;;;10.60;99.90;;;;;;5079939;28;20236;-76
2021/10/08 00:31:43;;;;;;;349.65;324.75;;;10.70;99.90;;;;;;5083327;28;20208;-76
2021/10/08 00:34:09;;;;;;;307.23;283.98;;;10.60;99.90;;;;;;5081026;28;20196;-76
2021/10/08 00:36:36;;;;;;;311.15;286.58;;;10.60;99.90;;;;;;5074546;28;20201;-76
2021/10/08 00:39:04;;;;;;;368.65;342.13;;;10.60;99.90;;;;;;5079840;28;20231;-76
2021/10/08 00:41:31;;;;;;;351.10;325.25;;;10.50;99.90;;;;;;5073713;28;20201;-76
2021/10/08 00:44:00;;;;;;;357.42;331.77;;;10.50;99.90;;;;;;5075285;28;20227;-76
2021/10/08 00:46:27;;;;;;;369.63;342.88;;;10.50;99.90;;;;;;5077077;28;20201;-76
2021/10/08 00:48:55;;;;;;;350.13;323.83;;;10.50;99.90;;;;;;5075322;28;20220;-76
2021/10/08 00:51:25;;;;;;;345.58;321.08;;;10.50;99.90;;;;;;5071261;28;20200;-76
2021/10/08 00:53:52;;;;;;;337.58;313.13;;;10.40;99.90;;;;;;5078377;28;20219;-76
2021/10/08 00:56:21;;;;;;;298.50;276.20;;;10.40;99.90;;;;;;5076563;28;20205;-76
2021/10/08 00:58:49;;;;;;;353.02;328.35;;;10.30;99.90;;;;;;5078258;28;20205;-76
2021/10/08 01:01:18;;;;;;;296.10;273.52;;;10.30;99.90;;;;;;5077227;28;20652;-76
2021/10/08 01:03:45;;;;;;;302.88;281.98;;;10.30;99.90;;;;;;5083712;28;20241;-76
2021/10/08 01:06:13;;;;;;;292.33;270.25;;;10.20;99.90;;;;;;5084106;28;20697;-77
2021/10/08 01:08:40;;;;;;;266.38;245.77;;;10.30;99.90;;;;;;5078306;28;20259;-76
2021/10/08 01:11:08;;;;;;;317.58;295.02;;;10.30;99.90;;;;;;5075247;28;20193;-76
2021/10/08 01:13:35;;;;;;;303.15;280.85;;;10.30;99.90;;;;;;5081393;28;20222;-76
2021/10/08 01:16:02;;;;;;;310.20;285.95;;;10.20;99.90;;;;;;5077410;28;20227;-77
2021/10/08 01:18:31;;;;;;;330.50;305.92;;;10.20;99.90;;;;;;5075101;28;20204;-77
2021/10/08 01:20:59;;;;;;;260.35;243.07;;;10.10;99.90;;;;;;5073471;28;20198;-76
2021/10/08 01:23:26;;;;;;;173.00;161.07;;;10.10;99.90;;;;;;5070168;28;20594;-76
2021/10/08 01:25:53;;;;;;;205.93;190.77;;;10.10;99.90;;;;;;5069990;28;20244;-76
2021/10/08 01:28:21;;;;;;;354.42;328.27;;;10.10;99.90;;;;;;5067397;28;20221;-76
2021/10/08 01:30:49;;;;;;;194.05;181.20;;;10.10;99.90;;;;;;5075249;28;20201;-77
2021/10/08 01:33:17;;;;;;;183.60;170.50;;;10.00;99.90;;;;;;5073144;28;20197;-76
2021/10/08 01:35:44;;;;;;;205.32;191.82;;;9.90;99.90;;;;;;5073422;28;20338;-76
2021/10/08 01:38:12;;;;;;;178.05;165.52;;;9.90;99.90;;;;;;5081029;28;20213;-76
2021/10/08 01:40:39;;;;;;;178.05;166.70;;;9.90;99.90;;;;;;5071630;28;20239;-76
2021/10/08 01:43:06;;;;;;;189.18;177.18;;;9.80;99.90;;;;;;5080256;28;20212;-76
2021/10/08 01:45:33;;;;;;;191.65;179.15;;;9.80;99.90;;;;;;5072912;28;20206;-76
2021/10/08 01:48:00;;;;;;;177.18;165.77;;;9.80;99.90;;;;;;5079985;28;20254;-76
2021/10/08 01:50:27;;;;;;;174.32;163.05;;;9.80;99.90;;;;;;5079503;28;20208;-76
2021/10/08 01:52:54;;;;;;;193.98;180.35;;;9.70;99.90;;;;;;5074272;28;20204;-76
2021/10/08 01:55:23;;;;;;;218.88;203.35;;;9.60;99.90;;;;;;5076554;28;20232;-76
2021/10/08 01:57:50;;;;;;;283.60;263.67;;;9.60;99.90;;;;;;5079018;28;20306;-77
2021/10/08 02:00:17;;;;;;;183.38;170.15;;;9.60;99.90;;;;;;5077651;28;20200;-76
2021/10/08 02:02:44;;;;;;;188.68;176.32;;;9.50;99.90;;;;;;5076651;28;20588;-76
2021/10/08 02:05:11;;;;;;;177.00;165.90;;;9.60;99.90;;;;;;5073335;28;20189;-76
2021/10/08 02:07:38;;;;;;;170.63;159.07;;;9.60;99.90;;;;;;5077330;28;20855;-76
2021/10/08 02:10:06;;;;;;;149.10;138.77;;;9.50;99.90;;;;;;5077218;28;20250;-76
2021/10/08 02:12:36;;;;;;;174.80;163.65;;;9.50;99.90;;;;;;5077934;28;20208;-77
2021/10/08 02:15:02;;;;;;;49.38;45.53;;;9.40;99.90;;;;;;5074764;28;20197;-76
2021/10/08 02:17:30;;;;;;;55.28;51.47;;;9.40;99.90;;;;;;5071070;28;20231;-76
2021/10/08 02:19:57;;;;;;;29.70;21.83;;;9.40;99.90;;;;;;5072776;28;20236;-76
2021/10/08 02:22:24;;;;;;;18.60;16.60;;;9.40;99.90;;;;;;5071790;28;20224;-76
2021/10/08 02:24:51;;;;;;;126.88;118.60;;;9.40;99.90;;;;;;5072300;28;20348;-76
2021/10/08 02:27:18;;;;;;;14.43;10.77;;;9.40;99.90;;;;;;5078470;28;20205;-77
2021/10/08 02:29:47;;;;;;;14.75;7.82;;;9.40;99.90;;;;;;5068877;28;20225;-76
2021/10/08 02:32:14;;;;;;;42.65;39.78;;;9.40;99.90;;;;;;5073351;28;20201;-76
2021/10/08 02:34:41;;;;;;;47.70;44.65;;;9.30;99.90;;;;;;5072386;28;20204;-77
2021/10/08 02:37:08;;;;;;;48.65;45.38;;;9.30;99.90;;;;;;5083519;28;20197;-76
2021/10/08 02:39:35;;;;;;;42.35;39.45;;;9.20;99.90;;;;;;5069545;28;20836;-76
2021/10/08 02:42:05;;;;;;;38.33;35.63;;;9.20;99.90;;;;;;5082306;28;20250;-75
2021/10/08 02:44:32;;;;;;;40.30;37.40;;;9.20;99.90;;;;;;5078263;28;20670;-76
2021/10/08 02:47:01;;;;;;;25.98;23.58;;;9.20;99.90;;;;;;5081235;28;20231;-75
2021/10/08 02:49:28;;;;;;;29.90;27.20;;;9.20;99.90;;;;;;5081118;28;20220;-76
2021/10/08 02:51:55;;;;;;;8.32;5.60;;;9.20;99.90;;;;;;5085856;28;20200;-76
2021/10/08 02:54:22;;;;;;;11.77;6.78;;;9.20;99.90;;;;;;5073100;28;20225;-76
2021/10/08 02:56:49;;;;;;;10.45;6.97;;;9.30;99.90;;;;;;5079186;28;20206;-76
2021/10/08 02:59:16;;;;;;;13.10;6.63;;;9.30;99.90;;;;;;5076675;28;20205;-76
2021/10/08 03:01:43;;;;;;;10.70;6.60;;;9.20;99.90;;;;;;5077677;28;20207;-76
2021/10/08 03:04:11;;;;;;;13.43;6.95;;;9.20;99.90;;;;;;5077140;28;20232;-76
2021/10/08 03:06:38;;;;;;;20.63;6.95;;;9.10;99.90;;;;;;5079199;28;20213;-76
2021/10/08 03:09:06;;;;;;;9.13;6.53;;;9.10;99.90;;;;;;5075506;28;20271;-76
2021/10/08 03:11:36;;;;;;;11.13;6.75;;;9.20;99.90;;;;;;5074928;28;20197;-75
2021/10/08 03:14:03;;;;;;;14.85;6.22;;;9.10;99.90;;;;;;5076512;28;20231;-76
2021/10/08 03:16:30;;;;;;;11.10;7.68;;;9.20;99.90;;;;;;5080730;28;20218;-76
2021/10/08 03:18:57;;;;;;;10.43;7.75;;;9.20;99.90;;;;;;5074002;28;20227;-76
2021/10/08 03:21:25;;;;;;;13.60;7.30;;;9.00;99.90;;;;;;5073357;28;20724;-76
2021/10/08 03:23:52;;;;;;;12.52;6.47;;;8.90;99.90;;;;;;5085984;28;20548;-76
2021/10/08 03:26:19;;;;;;;18.80;6.80;;;8.90;99.90;;;;;;5079754;28;20204;-76
2021/10/08 03:28:46;;;;;;;15.18;6.82;;;8.90;99.90;;;;;;5081299;28;20233;-75
2021/10/08 03:31:14;;;;;;;10.40;6.82;;;8.90;99.90;;;;;;5085587;28;20660;-75
2021/10/08 03:33:41;;;;;;;12.35;7.72;;;8.90;99.90;;;;;;5079833;28;20185;-76
2021/10/08 03:36:12;;;;;;;13.30;6.72;;;8.90;99.90;;;;;;5078899;28;20201;-76
2021/10/08 03:38:41;;;;;;;13.05;7.32;;;8.90;99.90;;;;;;5086966;28;20212;-76
2021/10/08 03:41:10;;;;;;;10.43;6.70;;;8.90;99.90;;;;;;5075253;28;20207;-76
2021/10/08 03:43:38;;;;;;;33.63;30.98;;;8.90;99.90;;;;;;5085187;28;20204;-76
2021/10/08 03:46:08;;;;;;;30.20;27.83;;;8.90;99.90;;;;;;5074924;28;20264;-75
2021/10/08 03:49:00;;;;;;;27.60;25.55;;;8.80;99.90;;;;;;5075069;28;20240;-75
2021/10/08 03:51:27;;;;;;;34.58;32.20;;;8.80;99.90;;;;;;5088692;28;20258;-76
2021/10/08 03:53:56;;;;;;;22.25;20.20;;;8.80;99.90;;;;;;5079058;28;20200;-76
2021/10/08 03:56:24;;;;;;;21.75;20.10;;;8.70;99.90;;;;;;5083685;28;20219;-76
2021/10/08 03:58:51;;;;;;;34.75;32.20;;;8.70;99.90;;;;;;5079096;28;20204;-76
2021/10/08 04:01:18;;;;;;;29.85;27.55;;;8.60;99.90;;;;;;5075032;28;20209;-76
2021/10/08 04:03:45;;;;;;;28.30;26.30;;;8.60;99.90;;;;;;5079825;28;20237;-76
2021/10/08 04:06:11;;;;;;;28.02;25.85;;;8.70;99.90;;;;;;5070318;28;20208;-76
2021/10/08 04:08:38;;;;;;;28.90;26.48;;;8.60;99.90;;;;;;5077670;28;20285;-76
2021/10/08 04:11:07;;;;;;;34.03;31.92;;;8.60;99.90;;;;;;5085015;28;20654;-76
2021/10/08 04:13:34;;;;;;;43.60;40.58;;;8.60;99.90;;;;;;5085063;28;20200;-76
2021/10/08 04:16:01;;;;;;;38.10;35.53;;;8.60;99.90;;;;;;5073992;28;20299;-76
2021/10/08 04:18:28;;;;;;;9.90;5.50;;;8.50;99.90;;;;;;5078728;28;20197;-75
2021/10/08 04:20:55;;;;;;;7.78;4.93;;;8.50;99.90;;;;;;5072113;28;20235;-77
2021/10/08 04:23:23;;;;;;;9.68;6.38;;;8.50;99.90;;;;;;5078976;28;20213;-76
2021/10/08 04:25:50;;;;;;;11.00;6.65;;;8.60;99.90;;;;;;5083003;28;20214;-76
2021/10/08 04:28:19;;;;;;;12.10;7.18;;;8.60;99.90;;;;;;5078823;28;20202;-76
2021/10/08 04:30:46;;;;;;;8.23;6.45;;;8.60;99.90;;;;;;5072506;28;20216;-76
2021/10/08 04:33:15;;;;;;;9.20;7.10;;;8.50;99.90;;;;;;5083583;28;20661;-76
2021/10/08 04:35:42;;;;;;;12.13;7.22;;;8.50;99.90;;;;;;5078940;28;20268;-77
2021/10/08 04:38:09;;;;;;;10.85;7.50;;;8.50;99.90;;;;;;5084148;28;20204;-76
2021/10/08 04:40:36;;;;;;;12.38;6.70;;;8.50;99.90;;;;;;5084358;28;20223;-77
2021/10/08 04:43:04;;;;;;;25.58;23.65;;;8.40;99.90;;;;;;5076176;28;20201;-76
2021/10/08 04:45:33;;;;;;;39.30;36.45;;;8.30;99.90;;;;;;5076807;28;20197;-76
2021/10/08 04:48:00;;;;;;;54.88;51.60;;;8.30;99.90;;;;;;5069372;28;20205;-76
2021/10/08 04:50:27;;;;;;;51.33;48.03;;;8.40;99.90;;;;;;5074755;28;20232;-76
2021/10/08 04:52:55;;;;;;;33.50;31.15;;;8.30;99.90;;;;;;5080610;28;20223;-76
2021/10/08 04:55:22;;;;;;;33.85;31.77;;;8.40;99.90;;;;;;5079549;28;20208;-76
2021/10/08 04:57:49;;;;;;;38.60;36.13;;;8.40;99.90;;;;;;5078287;28;20200;-75
2021/10/08 05:00:17;;;;;;;15.02;12.23;;;8.40;99.90;;;;;;5073401;28;20222;-76
2021/10/08 05:02:45;;;;;;;39.53;37.05;;;8.40;99.90;;;;;;5067536;28;20243;-76
2021/10/08 05:05:12;;;;;;;53.20;49.80;;;8.40;99.90;;;;;;5083391;28;20216;-76
2021/10/08 05:07:39;;;;;;;49.63;46.47;;;8.30;99.90;;;;;;5093824;28;20237;-76
2021/10/08 05:10:07;;;;;;;129.18;120.00;;;8.40;99.90;;;;;;5072128;28;20228;-76
2021/10/08 05:12:34;;;;;;;321.65;294.02;;;8.30;99.90;;;;;;5067435;28;20667;-75
2021/10/08 05:15:01;;;;;;;295.05;268.73;;;8.30;99.90;;;;;;5076265;28;20205;-76
2021/10/08 05:17:28;;;;;;;166.93;154.63;;;8.30;99.90;;;;;;5084320;28;20255;-76
2021/10/08 05:19:56;;;;;;;45.22;42.25;;;8.30;99.90;;;;;;5078060;28;20216;-76
2021/10/08 05:22:24;;;;;;;40.20;37.75;;;8.20;99.90;;;;;;5072739;28;20201;-76
2021/10/08 05:24:51;;;;;;;47.58;44.40;;;8.20;99.90;;;;;;5076312;28;20640;-76
2021/10/08 05:27:18;;;;;;;47.95;44.47;;;8.20;99.90;;;;;;5077828;28;20205;-75
2021/10/08 05:29:45;;;;;;;53.80;49.75;;;8.20;99.90;;;;;;5078590;28;20251;-76
2021/10/08 05:32:12;;;;;;;168.32;154.68;;;8.10;99.90;;;;;;5073437;28;20194;-76
2021/10/08 05:34:40;;;;;;;170.20;158.23;;;8.20;99.90;;;;;;5078841;28;20608;-76
2021/10/08 05:37:09;;;;;;;155.05;142.50;;;8.20;99.90;;;;;;5072758;28;20264;-76
2021/10/08 05:39:35;;;;;;;167.63;155.85;;;8.20;99.90;;;;;;5077299;28;20316;-76
2021/10/08 05:42:03;;;;;;;167.93;155.95;;;8.20;99.90;;;;;;5074066;28;20254;-76
2021/10/08 05:44:30;;;;;;;183.18;170.02;;;8.20;99.90;;;;;;5083902;28;20630;-76
2021/10/08 05:46:57;;;;;;;158.38;146.30;;;8.30;99.90;;;;;;5077854;28;20201;-76
2021/10/08 05:49:24;;;;;;;165.05;153.40;;;8.20;99.90;;;;;;5072679;28;20249;-76
2021/10/08 05:51:51;;;;;;;109.47;103.70;;;8.30;99.90;;;;;;5065112;28;20459;-76
2021/10/08 05:54:19;;;;;;;161.52;149.77;;;8.20;99.90;;;;;;5073573;28;20202;-76
2021/10/08 05:56:46;;;;;;;170.00;158.40;;;8.20;99.90;;;;;;5075159;28;20239;-76
2021/10/08 05:59:13;;;;;;;170.13;158.13;;;8.30;99.90;;;;;;5077762;28;20249;-76
2021/10/08 06:01:42;;;;;;;153.38;141.98;;;8.30;99.90;;;;;;5084547;28;20210;-76
2021/10/08 06:04:09;;;;;;;174.50;162.32;;;8.20;99.90;;;;;;5080222;28;20261;-76
2021/10/08 06:06:37;;;;;;;169.43;157.07;;;8.20;99.90;;;;;;5050804;28;20203;-76
2021/10/08 06:09:04;;;;;;;181.18;167.10;;;8.20;99.90;;;;;;5058320;28;20225;-76
2021/10/08 06:11:33;;;;;;;320.27;291.20;;;8.20;99.90;;;;;;5057220;28;20228;-76
2021/10/08 06:14:00;;;;;;;318.00;288.20;;;8.20;99.90;;;;;;5056242;28;20205;-76
2021/10/08 06:16:27;;;;;;;274.40;247.88;;;8.20;99.90;;;;;;5057865;28;20199;-76
2021/10/08 06:18:56;;;;;;;302.88;274.45;;;8.30;99.90;;;;;;5054456;28;20201;-76
2021/10/08 06:21:23;;;;;;;338.00;306.92;;;8.30;99.90;;;;;;5066947;28;20193;-76
2021/10/08 06:23:50;;;;;;;329.90;300.33;;;8.30;99.90;;;;;;5058271;28;20229;-76
2021/10/08 06:26:17;;;;;;;271.77;245.02;;;8.30;99.90;;;;;;5056520;28;20253;-77
2021/10/08 06:28:46;;;;;;;328.98;298.98;;;8.30;99.90;;;;;;5055493;28;20223;-75
2021/10/08 06:31:31;;;;;;;331.23;300.77;;;8.30;99.90;;;;;;5061804;28;20235;-76
2021/10/08 06:33:59;;;;;;;306.83;277.73;;;8.30;99.90;;;;;;5053977;28;20197;-76
2021/10/08 06:36:26;;;;;;;296.40;269.88;;;8.30;99.90;;;;;;5060851;28;20208;-76
2021/10/08 06:38:56;;;;;;;324.10;294.38;;;8.30;99.90;;;;;;5053978;28;20259;-76
2021/10/08 06:41:23;;;;;;;301.30;273.23;;;8.30;99.90;;;;;;5056891;28;20593;-76
2021/10/08 06:43:51;;;;;;;264.38;238.35;;;8.30;99.90;;;;;;5062120;28;20201;-76
2021/10/08 06:46:20;;;;;;;313.30;285.10;;;8.30;99.90;;;;;;5058323;28;20236;-76
2021/10/08 06:48:47;;;;;;;324.63;296.45;;;8.30;99.90;;;;;;5057573;28;20231;-76
2021/10/08 06:51:14;;;;;;;335.83;305.65;;;8.40;99.90;;;;;;5063706;28;20331;-76
2021/10/08 06:53:41;;;;;;;272.40;246.98;;;8.40;99.90;;;;;;5054763;28;20264;-75
2021/10/08 06:56:08;;;;;;;302.42;274.48;;;8.50;99.90;;;;;;5066956;28;20201;-76
2021/10/08 06:58:35;;;;;;;315.25;287.10;;;8.50;99.90;;;;;;5067304;28;20197;-76
2021/10/08 07:01:04;;;;;;;293.60;266.23;;;8.50;99.90;;;;;;5066141;28;20258;-75
2021/10/08 07:03:31;;;;;;;329.48;301.55;;;8.50;99.90;;;;;;5056412;28;20262;-76
2021/10/08 07:05:58;;;;;;;331.95;304.20;;;8.60;99.90;;;;;;5065016;28;20284;-76
2021/10/08 07:08:25;;;;;;;278.63;252.02;;;8.70;99.90;;;;;;5049860;28;20197;-76
2021/10/08 07:10:52;;;;;;;285.92;259.02;;;8.70;99.90;;;;;;5058983;28;20236;-76
2021/10/08 07:13:19;;;;;;;305.52;279.00;;;8.80;99.90;;;;;;5058905;28;20201;-75
2021/10/08 07:15:47;;;;;;;324.80;296.40;;;8.80;99.90;;;;;;5061588;28;20205;-76
2021/10/08 07:18:22;;;;;;;324.58;296.30;;;8.90;99.90;;;;;;5065490;28;20675;-76
2021/10/08 07:20:49;;;;;;;328.98;300.05;;;8.90;99.90;;;;;;5060037;28;20204;-76
2021/10/08 07:23:17;;;;;;;291.83;264.98;;;9.00;99.90;;;;;;5058353;28;20205;-76
2021/10/08 07:25:44;;;;;;;366.13;335.70;;;9.10;99.90;;;;;;5058320;28;20232;-76
2021/10/08 07:28:11;;;;;;;340.00;310.40;;;9.20;99.90;;;;;;5061430;28;20202;-76
2021/10/08 07:30:38;;;;;;;303.13;275.10;;;9.20;99.90;;;;;;5053981;28;20221;-76
2021/10/08 07:33:05;;;;;;;340.83;311.40;;;9.40;99.90;;;;;;5096637;28;20205;-76
2021/10/08 07:35:34;;;;;;;337.48;308.77;;;9.40;99.90;;;;;;5052529;28;20638;-76
2021/10/08 07:38:01;;;;;;;308.92;282.33;;;9.50;99.90;;;;;;5054456;28;20308;-76
2021/10/08 07:40:28;;;;;;;194.75;181.23;;;9.70;99.90;;;;;;5048922;28;20661;-76
2021/10/08 07:42:55;;;;;;;210.60;195.80;;;10.10;99.90;;;;;;5061089;28;20201;-76
2021/10/08 07:45:23;;;;;;;210.27;196.50;;;10.60;99.90;;;;;;5048861;28;20202;-76
2021/10/08 07:47:49;;;;;;;200.45;188.38;;;11.20;99.90;;;;;;5058420;28;20201;-76
2021/10/08 07:50:17;;;;;;;209.45;197.13;;;11.80;99.90;;;;;;5058745;28;20229;-76
2021/10/08 07:52:45;;;;;;;205.80;193.23;;;12.30;99.90;;;;;;5053476;28;20214;-76
2021/10/08 07:55:13;;;;;;;203.00;190.82;;;12.80;99.90;;;;;;5056180;28;20195;-76
2021/10/08 07:57:40;;;;;;;202.75;191.02;;;13.30;99.90;;;;;;5060383;28;20262;-76
2021/10/08 08:00:11;;;;;;;171.88;162.55;;;13.70;99.90;;;;;;5065549;28;20217;-76
2021/10/08 08:02:38;;;;;;;180.88;170.48;;;14.10;99.90;;;;;;5056715;28;20210;-76
2021/10/08 08:05:05;;;;;;;204.00;193.00;;;14.50;99.90;;;;;;5085058;28;20210;-76
2021/10/08 08:07:32;;;;;;;184.07;174.23;;;15.00;99.90;;;;;;5079576;28;20232;-76
2021/10/08 08:10:01;;;;;;;178.60;168.95;;;15.50;99.90;;;;;;5076797;28;20231;-76
2021/10/08 08:12:28;;;;;;;155.18;146.98;;;15.70;99.90;;;;;;5073939;28;20258;-76
2021/10/08 08:14:55;;;;;;;149.68;142.00;;;16.00;99.90;;;;;;5073801;28;20199;-76
2021/10/08 08:17:22;;;;;;;169.43;160.38;;;16.30;99.90;;;;;;5078761;28;20198;-76
2021/10/08 08:19:49;;;;;;;143.60;136.13;;;16.80;99.90;;;;;;5076087;28;20203;-76
2021/10/08 08:22:16;;;;;;;144.02;136.88;;;17.20;99.90;;;;;;5081937;28;20202;-76
2021/10/08 08:24:44;;;;;;;140.10;132.23;;;17.50;99.90;;;;;;5077991;28;20203;-76
2021/10/08 08:27:12;;;;;;;128.60;122.20;;;17.80;99.90;;;;;;5078981;28;20207;-76
2021/10/08 08:29:39;;;;;;;111.65;106.07;;;18.30;99.90;;;;;;5078842;28;20203;-76
2021/10/08 08:32:07;;;;;;;70.65;67.00;;;18.70;99.90;;;;;;5077903;28;20242;-76
2021/10/08 08:34:34;;;;;;;73.13;69.45;;;19.20;99.90;;;;;;5073289;28;20199;-76
2021/10/08 08:37:00;;;;;;;68.85;65.22;;;19.50;99.90;;;;;;5077969;28;20203;-76
2021/10/08 08:39:28;;;;;;;59.13;55.75;;;19.90;99.90;;;;;;5071270;28;20217;-76
2021/10/08 08:41:55;;;;;;;42.60;40.17;;;20.50;99.90;;;;;;5074298;28;20219;-76
2021/10/08 08:44:23;;;;;;;36.35;33.83;;;20.90;99.90;;;;;;5077082;28;20238;-76
2021/10/08 08:46:50;;;;;;;45.03;42.55;;;21.30;99.90;;;;;;5077480;28;20193;-76
2021/10/08 08:49:17;;;;;;;37.17;34.72;;;21.70;99.90;;;;;;5084533;28;20710;-76
2021/10/08 08:51:44;;;;;;;43.22;40.70;;;22.00;99.90;;;;;;5076314;28;20259;-76
2021/10/08 08:54:12;;;;;;;25.35;23.58;;;22.30;99.90;;;;;;5080703;28;20235;-76
2021/10/08 08:56:39;;;;;;;32.22;29.83;;;22.50;99.90;;;;;;5076400;28;20619;-75
2021/10/08 08:59:08;;;;;;;29.70;27.73;;;22.60;99.90;;;;;;5067570;28;20566;-76
2021/10/08 09:01:57;;;;;;;17.35;16.02;;;22.70;99.90;;;;;;5080445;28;20223;-76
2021/10/08 09:04:28;;;;;;;17.17;15.57;;;22.80;99.90;;;;;;5082307;28;20247;-76
2021/10/08 09:06:55;;;;;;;14.68;13.57;;;23.00;99.90;;;;;;5073087;28;20201;-76
2021/10/08 09:09:23;;;;;;;15.77;13.45;;;23.20;99.90;;;;;;5083721;28;20213;-76
2021/10/08 09:11:52;;;;;;;13.65;12.45;;;23.20;99.90;;;;;;5072609;28;20280;-76
2021/10/08 09:14:21;;;;;;;12.35;11.40;;;23.20;99.90;;;;;;5075110;28;20221;-76
2021/10/08 09:17:24;;;;;;;11.57;10.57;;;23.50;99.90;;;;;;5074411;28;20203;-76
2021/10/08 09:20:00;;;;;;;12.35;11.32;;;23.80;99.90;;;;;;5038689;28;20201;-77
2021/10/08 09:22:29;;;;;;;14.20;12.70;;;23.80;99.90;;;;;;5039040;28;20480;-76
2021/10/08 09:25:11;;;;;;;16.75;15.63;;;23.90;99.90;;;;;;5032428;28;20227;-76
2021/10/08 09:27:39;;;;;;;10.75;10.00;;;23.90;99.90;;;;;;5030160;28;20216;-76
2021/10/08 09:30:07;;;;;;;12.60;11.45;;;23.90;99.90;;;;;;5034145;28;20225;-76
2021/10/08 09:32:44;;;;;;;8.90;7.97;;;23.70;99.90;;;;;;5029973;28;20721;-77
2021/10/08 09:35:12;;;;;;;9.85;9.05;;;23.60;99.90;;;;;;5036234;28;20201;-76
2021/10/08 09:37:40;;;;;;;11.50;10.57;;;23.40;99.90;;;;;;5037541;28;20236;-76
2021/10/08 09:40:24;;;;;;;14.02;12.88;;;23.20;99.90;;;;;;5030914;28;20215;-76
2021/10/08 09:42:56;;;;;;;12.38;11.25;;;23.00;99.90;;;;;;5032034;28;20216;-76
2021/10/08 09:45:38;;;;;;;11.68;9.82;;;22.80;99.90;;;;;;5032112;28;20202;-76
2021/10/08 09:48:07;;;;;;;13.65;12.25;;;22.20;99.90;;;;;;5025670;28;20227;-75
2021/10/08 09:50:35;;;;;;;14.85;13.73;;;22.00;99.90;;;;;;5053657;28;20298;-76
2021/10/08 09:53:10;;;;;;;14.68;13.43;;;22.10;99.90;;;;;;5081151;28;20204;-77
2021/10/08 09:55:39;;;;;;;13.13;12.13;;;21.80;99.90;;;;;;5076670;28;20206;-76
2021/10/08 09:58:06;;;;;;;15.15;13.93;;;21.50;99.90;;;;;;5083606;28;20683;-77
2021/10/08 10:00:57;;;;;;;13.63;12.52;;;21.40;99.90;;;;;;5071253;28;20194;-77
2021/10/08 10:18:03;;;;;;;14.80;13.48;;;20.70;99.90;;;;;;5394305;22;17924050;-76
2021/10/08 10:20:33;;;;;;;13.25;11.85;;;20.60;99.90;;;;;;6149013;23;20198;-77
2021/10/08 10:23:09;;;;;;;20.58;18.98;;;20.60;99.90;;;;;;6148332;23;20194;-76
2021/10/08 10:25:52;;;;;;;16.85;15.55;;;20.60;99.90;;;;;;6152645;23;20171;-76
2021/10/08 10:31:08;;;;;;;19.17;17.38;;;20.50;99.90;;;;;;6148550;23;20170;-76
2021/10/08 10:33:56;;;;;;;24.83;22.80;;;20.50;99.90;;;;;;6148397;23;20225;-77
2021/10/08 10:36:24;;;;;;;22.27;20.65;;;20.60;99.90;;;;;;6148264;23;20163;-76
2021/10/08 10:50:11;;;;;;;26.10;24.10;;;20.70;99.90;;;;;;6148016;23;20178;-76
2021/10/08 10:52:48;;;;;;;17.27;15.82;;;20.70;99.90;;;;;;6148764;23;20198;-76
2021/10/08 10:58:04;;;;;;;17.73;16.30;;;20.60;99.90;;;;;;6147774;23;20253;-76
2021/10/08 11:00:46;;;;;;;21.23;19.48;;;20.50;99.90;;;;;;6147692;23;20237;-76
2021/10/08 11:03:22;;;;;;;22.42;20.30;;;20.30;99.90;;;;;;6149350;23;20242;-77
2021/10/08 11:06:20;;;;;;;29.00;26.98;;;20.10;99.90;;;;;;6148118;23;20197;-76
2021/10/08 11:09:20;;;;;;;27.30;25.05;;;19.80;99.90;;;;;;6147455;23;20221;-76
2021/10/08 11:12:27;;;;;;;32.33;30.30;;;19.40;99.90;;;;;;6148754;23;20187;-76
2021/10/08 11:15:35;;;;;;;41.55;39.17;;;19.30;99.90;;;;;;6146237;23;20186;-77
2021/10/08 11:18:04;;;;;;;35.53;33.25;;;19.30;99.90;;;;;;6052039;23;20211;-77
2021/10/08 11:20:46;;;;;;;36.00;33.55;;;19.10;99.90;;;;;;6052306;23;20212;-77
2021/10/08 11:23:29;;;;;;;30.95;28.85;;;19.10;99.90;;;;;;6051849;23;20534;-76
2021/10/08 11:25:58;;;;;;;44.10;41.30;;;18.90;99.90;;;;;;6052018;23;20691;-77
2021/10/08 11:28:30;;;;;;;28.98;27.15;;;18.70;99.90;;;;;;6051922;23;20208;-76
2021/10/08 11:30:58;;;;;;;36.38;33.75;;;18.40;99.90;;;;;;6052005;23;20247;-77
2021/10/08 11:33:33;;;;;;;35.47;32.70;;;18.30;99.90;;;;;;6052022;23;20191;-77
2021/10/08 11:36:00;;;;;;;48.28;45.20;;;18.30;99.90;;;;;;6051366;23;20211;-76
2021/10/08 11:38:29;;;;;;;36.13;33.28;;;18.20;99.90;;;;;;6051736;23;20190;-77
2021/10/08 11:40:56;;;;;;;33.25;30.85;;;18.10;99.90;;;;;;6051868;23;20193;-77
2021/10/08 11:43:27;;;;;;;47.35;44.17;;;18.10;99.90;;;;;;6052039;23;20768;-77
2021/10/08 11:46:00;;;;;;;45.80;42.95;;;18.10;99.90;;;;;;6051929;23;20215;-77
2021/10/08 11:48:39;;;;;;;44.35;41.78;;;18.20;99.90;;;;;;6051975;23;20189;-77
2021/10/08 11:51:07;;;;;;;35.20;33.15;;;18.20;99.90;;;;;;6051984;23;20196;-77
2021/10/08 11:53:42;;;;;;;48.63;45.22;;;18.20;99.90;;;;;;6087476;23;20179;-77
2021/10/08 11:56:24;;;;;;;37.70;35.40;;;18.20;99.90;;;;;;6141428;23;20186;-77
2021/10/08 11:58:51;;;;;;;56.38;53.33;;;18.20;99.90;;;;;;6141806;23;20541;-77
2021/10/08 12:01:22;;;;;;;37.30;34.53;;;18.10;99.90;;;;;;6142023;23;20182;-77
2021/10/08 12:03:50;;;;;;;41.15;38.22;;;18.10;99.90;;;;;;6141848;23;20228;-77
2021/10/08 12:06:22;;;;;;;53.47;50.33;;;18.00;99.90;;;;;;6141252;23;20222;-77
2021/10/08 12:08:52;;;;;;;51.90;48.90;;;18.00;99.90;;;;;;6141573;23;20181;-77
2021/10/08 12:11:20;;;;;;;39.00;36.67;;;18.00;99.90;;;;;;6141803;23;20177;-77
2021/10/08 12:13:50;;;;;;;39.80;37.40;;;18.00;99.90;;;;;;6141305;23;20185;-77
2021/10/08 12:16:19;;;;;;;32.78;30.88;;;18.20;99.90;;;;;;6141331;23;20208;-77
2021/10/08 12:18:48;;;;;;;43.58;41.00;;;18.20;99.90;;;;;;6141471;23;20171;-76
2021/10/08 12:21:18;;;;;;;45.92;43.42;;;18.20;99.90;;;;;;6141117;23;20241;-77
2021/10/08 12:23:53;;;;;;;46.17;43.72;;;18.10;99.90;;;;;;6141888;23;20201;-77
2021/10/08 12:26:22;;;;;;;38.08;35.65;;;18.20;99.90;;;;;;6140512;23;20194;-77
2021/10/08 12:28:51;;;;;;;40.42;38.38;;;18.20;99.90;;;;;;6141848;23;20190;-76
2021/10/08 12:31:19;;;;;;;47.70;45.35;;;18.20;99.90;;;;;;6141390;23;20206;-77
2021/10/08 12:33:48;;;;;;;47.85;45.47;;;18.10;99.90;;;;;;6142134;23;20212;-77
2021/10/08 12:36:22;;;;;;;44.97;42.03;;;18.20;99.90;;;;;;6142637;23;20185;-78
2021/10/08 12:38:57;;;;;;;36.90;34.70;;;18.10;99.90;;;;;;6143086;23;20170;-78
2021/10/08 12:41:28;;;;;;;41.63;39.28;;;18.10;99.90;;;;;;6143245;23;20169;-78
2021/10/08 12:44:12;;;;;;;51.88;49.08;;;17.90;99.90;;;;;;6143357;23;20245;-79
2021/10/08 12:46:41;;;;;;;39.20;36.97;;;17.90;99.90;;;;;;6143403;23;20170;-78
2021/10/08 12:49:10;;;;;;;46.00;43.42;;;17.90;99.90;;;;;;6143605;23;20183;-78
2021/10/08 12:51:52;;;;;;;36.63;34.72;;;18.00;99.90;;;;;;6143664;23;20181;-79
2021/10/08 12:54:22;;;;;;;47.47;44.78;;;18.00;99.90;;;;;;6143917;23;20275;-78
2021/10/08 12:57:19;;;;;;;43.30;41.08;;;18.00;99.90;;;;;;6143637;23;20240;-78
2021/10/08 12:59:52;;;;;;;55.35;52.55;;;17.90;99.90;;;;;;6143593;23;20258;-78
2021/10/08 13:02:20;;;;;;;45.47;43.08;;;17.90;99.90;;;;;;6142928;23;20185;-78
2021/10/08 13:04:48;;;;;;;49.30;46.75;;;17.90;99.90;;;;;;6142743;23;20281;-78
2021/10/08 13:07:17;;;;;;;58.70;55.83;;;18.00;99.90;;;;;;6142653;23;20182;-78
2021/10/08 13:10:07;;;;;;;55.40;52.58;;;18.00;99.90;;;;;;6143421;23;20184;-78